Time;durP1;ratioP1;P1;durP2;ratioP2;P2;SDS_P1;SDS_P2;PMS_P1;PMS_P2;Temp;Humidity;BMP_temperature;BMP_pressure;BME280_temperature;BME280_humidity;BME280_pressure;Samples;Min_cycle;Max_cycle;Signal;HPM_P1;HPM_P2
2021/12/07 00:00:16;;;;;;;37.43;21.20;;;0.50;99.90;;;;;;5141512;28;20184;-54
2021/12/07 00:02:47;;;;;;;41.20;21.53;;;0.40;99.90;;;;;;5160593;28;20209;-49
2021/12/07 00:05:18;;;;;;;43.60;21.77;;;0.30;99.90;;;;;;5126981;28;20572;-51
2021/12/07 00:07:49;;;;;;;43.80;24.77;;;0.40;99.90;;;;;;5125921;28;20254;-49
2021/12/07 00:10:19;;;;;;;50.10;26.37;;;0.50;99.90;;;;;;5140598;28;20582;-51
2021/12/07 00:12:50;;;;;;;54.90;24.57;;;0.40;99.90;;;;;;5154704;28;20191;-51
2021/12/07 00:15:23;;;;;;;44.73;24.03;;;0.40;99.90;;;;;;5141982;28;20192;-51
2021/12/07 00:17:54;;;;;;;50.63;23.17;;;0.40;99.90;;;;;;5157638;28;20487;-51
2021/12/07 00:20:25;;;;;;;47.13;22.77;;;0.40;99.90;;;;;;5140482;28;20828;-51
2021/12/07 00:23:01;;;;;;;44.53;22.87;;;0.30;99.90;;;;;;5141662;28;20558;-51
2021/12/07 00:25:33;;;;;;;40.97;23.60;;;0.30;99.90;;;;;;5139915;28;20483;-50
2021/12/07 00:28:04;;;;;;;48.73;23.77;;;0.30;99.90;;;;;;5122510;28;20553;-51
2021/12/07 00:30:36;;;;;;;41.97;22.60;;;0.30;99.90;;;;;;5138215;28;20430;-52
2021/12/07 00:33:12;;;;;;;42.67;22.57;;;0.20;99.90;;;;;;5140067;28;20440;-50
2021/12/07 00:35:44;;;;;;;42.57;20.97;;;0.10;99.90;;;;;;5137638;28;20429;-51
2021/12/07 00:38:19;;;;;;;58.40;23.37;;;0.00;99.90;;;;;;5141443;28;20480;-50
2021/12/07 00:40:51;;;;;;;43.03;20.40;;;0.00;99.90;;;;;;5139195;28;20433;-49
2021/12/07 00:43:25;;;;;;;46.10;22.00;;;0.00;99.90;;;;;;5141930;28;20436;-49
2021/12/07 00:45:57;;;;;;;37.90;18.60;;;0.00;99.90;;;;;;5140644;28;20461;-50
2021/12/07 00:48:30;;;;;;;51.70;22.90;;;0.00;99.90;;;;;;5136402;28;20448;-49
2021/12/07 00:51:00;;;;;;;38.67;20.27;;;-0.10;99.90;;;;;;5137835;28;20466;-50
2021/12/07 00:53:31;;;;;;;42.20;21.43;;;-0.20;99.90;;;;;;5138093;28;20435;-51
2021/12/07 00:56:03;;;;;;;46.57;21.10;;;-0.30;99.90;;;;;;5141451;28;20186;-52
2021/12/07 00:58:34;;;;;;;42.03;20.90;;;-0.30;99.90;;;;;;5141251;28;20193;-50
2021/12/07 01:01:12;;;;;;;39.80;20.50;;;-0.40;99.90;;;;;;5142362;28;20433;-52
2021/12/07 01:03:43;;;;;;;40.33;20.77;;;-0.50;99.90;;;;;;5139067;28;20442;-50
2021/12/07 01:06:27;;;;;;;34.80;19.90;;;-0.50;99.90;;;;;;5133317;28;20432;-52
2021/12/07 01:09:10;;;;;;;37.73;20.30;;;-0.50;99.90;;;;;;5140758;28;20822;-51
2021/12/07 01:26:03;;;;;;;32.63;17.60;;;-0.40;99.90;;;;;;5141454;28;20455;-52
2021/12/07 01:28:39;;;;;;;42.47;20.23;;;-0.40;99.90;;;;;;5136233;28;20468;-52
2021/12/07 01:34:15;;;;;;;34.23;18.77;;;-0.40;99.90;;;;;;5143163;28;20441;-51
2021/12/07 01:45:28;;;;;;;37.20;19.30;;;-0.50;99.90;;;;;;5144218;28;21078;-50
2021/12/07 01:49:52;;;;;;;37.83;19.03;;;-0.60;99.90;;;;;;5142076;28;20464;-53
2021/12/07 01:59:33;;;;;;;35.37;19.47;;;-0.80;99.90;;;;;;5143459;28;20453;-50
2021/12/07 02:02:07;;;;;;;30.97;17.13;;;-0.70;99.90;;;;;;5144623;28;20432;-51
2021/12/07 02:04:38;;;;;;;30.43;17.57;;;-0.80;99.90;;;;;;5139560;28;20457;-53
2021/12/07 02:07:09;;;;;;;42.03;18.60;;;-0.80;99.90;;;;;;5143461;28;20439;-50
2021/12/07 02:09:45;;;;;;;41.93;19.53;;;-0.90;99.90;;;;;;5141684;28;20440;-50
2021/12/07 02:12:15;;;;;;;38.20;19.90;;;-0.90;99.90;;;;;;5143674;28;20456;-51
2021/12/07 02:14:46;;;;;;;36.93;18.13;;;-0.90;99.90;;;;;;5141921;28;20467;-51
2021/12/07 02:17:22;;;;;;;33.93;17.43;;;-0.90;99.90;;;;;;5140816;28;20185;-51
2021/12/07 02:19:53;;;;;;;35.40;15.70;;;-0.90;99.90;;;;;;5139285;28;20673;-52
2021/12/07 02:22:23;;;;;;;33.93;18.10;;;-0.90;99.90;;;;;;5146103;28;20441;-50
2021/12/07 02:24:54;;;;;;;38.23;17.53;;;-0.90;99.90;;;;;;5141134;28;20265;-51
2021/12/07 02:27:24;;;;;;;33.80;16.53;;;-1.00;99.90;;;;;;5158755;28;20177;-52
2021/12/07 02:29:55;;;;;;;31.13;16.60;;;-1.00;99.90;;;;;;5140932;28;20281;-50
2021/12/07 02:32:26;;;;;;;32.63;16.90;;;-1.00;99.90;;;;;;5140216;28;20197;-51
2021/12/07 02:35:00;;;;;;;28.53;17.40;;;-1.00;99.90;;;;;;5142343;28;20190;-53
2021/12/07 02:37:33;;;;;;;31.17;17.23;;;-1.00;99.90;;;;;;5141499;28;20443;-52
2021/12/07 02:40:08;;;;;;;35.10;16.20;;;-0.90;99.90;;;;;;5161321;23;20521;-48
2021/12/07 02:42:39;;;;;;;33.77;18.07;;;-1.00;99.90;;;;;;5162046;28;20436;-46
2021/12/07 02:45:11;;;;;;;33.97;17.60;;;-1.00;99.90;;;;;;5162306;28;20500;-47
2021/12/07 02:47:42;;;;;;;30.67;16.37;;;-0.90;99.90;;;;;;5160327;28;20439;-46
2021/12/07 02:50:13;;;;;;;33.40;17.10;;;-0.90;99.90;;;;;;5160582;28;20983;-46
2021/12/07 02:52:44;;;;;;;34.47;17.70;;;-0.90;99.90;;;;;;5161746;28;20184;-46
2021/12/07 02:55:15;;;;;;;30.23;17.77;;;-0.90;99.90;;;;;;5160283;28;20967;-46
2021/12/07 02:57:47;;;;;;;35.30;16.93;;;-0.90;99.90;;;;;;5174682;28;20217;-46
2021/12/07 03:00:22;;;;;;;39.07;18.50;;;-0.90;99.90;;;;;;5161784;28;20196;-46
2021/12/07 03:02:59;;;;;;;40.50;17.67;;;-0.90;99.90;;;;;;5161732;28;20435;-46
2021/12/07 03:05:45;;;;;;;29.03;17.17;;;-0.90;99.90;;;;;;5159076;28;20491;-45
2021/12/07 03:25:54;;;;;;;34.30;19.30;;;-0.90;99.90;;;;;;5159937;28;20424;-46
2021/12/07 03:28:20;;;;;;;41.77;20.40;;;-0.90;99.90;;;;;;5160380;28;20995;-46
2021/12/07 03:30:52;;;;;;;39.43;20.37;;;-0.90;99.90;;;;;;5162318;28;20507;-49
2021/12/07 03:33:22;;;;;;;42.60;22.57;;;-0.80;99.90;;;;;;5160342;28;20180;-48
2021/12/07 03:35:53;;;;;;;38.07;21.67;;;-0.70;99.90;;;;;;5159614;28;20428;-47
2021/12/07 03:38:23;;;;;;;41.60;20.60;;;-0.70;99.90;;;;;;5157949;28;20282;-47
2021/12/07 03:40:55;;;;;;;47.10;23.13;;;-0.70;99.90;;;;;;5159668;28;20174;-47
2021/12/07 03:43:25;;;;;;;38.37;19.93;;;-0.70;99.90;;;;;;5163301;28;20765;-46
2021/12/07 03:45:56;;;;;;;45.93;22.97;;;-0.60;99.90;;;;;;5162601;28;21320;-46
2021/12/07 03:48:27;;;;;;;48.93;21.53;;;-0.80;99.90;;;;;;5144519;28;20296;-46
2021/12/07 03:50:58;;;;;;;47.57;21.87;;;-0.80;99.90;;;;;;5160265;28;20193;-47
2021/12/07 03:53:29;;;;;;;41.57;22.23;;;-0.80;99.90;;;;;;5159290;28;20901;-46
2021/12/07 03:56:00;;;;;;;39.67;22.13;;;-0.80;99.90;;;;;;5161861;28;20184;-46
2021/12/07 03:58:31;;;;;;;40.33;22.07;;;-0.80;99.90;;;;;;5158742;28;20604;-46
2021/12/07 04:01:03;;;;;;;46.17;23.93;;;-0.80;99.90;;;;;;5158468;28;20459;-47
2021/12/07 04:03:35;;;;;;;46.63;23.87;;;-0.80;99.90;;;;;;5145960;28;20431;-47
2021/12/07 04:06:06;;;;;;;45.07;22.83;;;-0.90;99.90;;;;;;5158837;28;20491;-47
2021/12/07 04:08:41;;;;;;;43.43;22.70;;;-0.90;99.90;;;;;;5159688;28;20463;-47
2021/12/07 04:11:13;;;;;;;45.27;22.77;;;-0.80;99.90;;;;;;5159566;28;20537;-47
2021/12/07 04:13:45;;;;;;;56.27;25.30;;;-0.80;99.90;;;;;;5157194;28;20868;-46
2021/12/07 04:16:17;;;;;;;48.87;24.33;;;-0.80;99.90;;;;;;5158864;28;20447;-48
2021/12/07 04:18:48;;;;;;;53.23;24.20;;;-0.80;99.90;;;;;;5159594;28;20471;-47
2021/12/07 04:21:19;;;;;;;49.97;24.67;;;-0.80;99.90;;;;;;5159680;28;20825;-46
2021/12/07 04:23:49;;;;;;;42.07;22.47;;;-0.70;99.90;;;;;;5160572;28;20231;-47
2021/12/07 04:26:20;;;;;;;42.73;23.00;;;-0.70;99.90;;;;;;5160116;28;20788;-47
2021/12/07 04:28:51;;;;;;;46.97;23.33;;;-0.70;99.90;;;;;;5160122;28;20207;-47
2021/12/07 04:31:22;;;;;;;50.87;23.90;;;-0.70;99.90;;;;;;5156909;28;20873;-47
2021/12/07 04:33:52;;;;;;;50.30;25.07;;;-0.70;99.90;;;;;;5160305;28;20532;-47
2021/12/07 04:36:23;;;;;;;47.03;23.57;;;-0.60;99.90;;;;;;5141600;28;20668;-47
2021/12/07 04:38:54;;;;;;;42.97;23.70;;;-0.60;99.90;;;;;;5162297;28;20286;-47
2021/12/07 04:41:31;;;;;;;47.00;23.90;;;-0.60;99.90;;;;;;5156703;28;20184;-48
2021/12/07 04:44:03;;;;;;;45.17;25.03;;;-0.70;99.90;;;;;;5154548;28;20243;-48
2021/12/07 04:46:41;;;;;;;47.30;25.40;;;-0.70;99.90;;;;;;5159465;28;20490;-47
2021/12/07 04:49:53;;;;;;;47.07;26.00;;;-0.70;99.90;;;;;;5144442;28;20550;-47
2021/12/07 04:57:46;;;;;;;47.70;24.27;;;-0.70;99.90;;;;;;5160462;28;20432;-46
2021/12/07 05:00:23;;;;;;;48.97;25.43;;;-0.70;99.90;;;;;;5156369;28;20460;-47
2021/12/07 05:03:00;;;;;;;40.97;24.23;;;-0.70;99.90;;;;;;5150711;28;20458;-45
2021/12/07 05:05:36;;;;;;;43.87;23.83;;;-0.70;99.90;;;;;;5161688;28;20451;-47
2021/12/07 05:08:10;;;;;;;43.53;24.77;;;-0.60;99.90;;;;;;5159626;28;20943;-47
2021/12/07 05:11:30;;;;;;;51.23;27.70;;;-0.70;99.90;;;;;;5174608;28;20486;-46
2021/12/07 05:13:53;;;;;;;47.57;23.90;;;-0.70;99.90;;;;;;5148967;28;20432;-48
2021/12/07 05:25:02;;;;;;;51.97;25.60;;;-0.60;99.90;;;;;;5161503;28;20514;-47
2021/12/07 05:34:37;;;;;;;45.57;25.43;;;-0.60;99.90;;;;;;5160128;28;20420;-46
2021/12/07 05:38:54;;;;;;;52.80;26.93;;;-0.70;99.90;;;;;;5158778;28;20512;-47
2021/12/07 05:41:26;;;;;;;51.53;26.47;;;-0.80;99.90;;;;;;5159649;28;20428;-47
2021/12/07 05:43:57;;;;;;;48.73;25.83;;;-0.80;99.90;;;;;;5159876;28;20219;-46
2021/12/07 05:46:27;;;;;;;54.50;27.10;;;-0.90;99.90;;;;;;5156506;28;20519;-46
2021/12/07 05:48:58;;;;;;;53.20;27.20;;;-0.90;99.90;;;;;;5162017;28;20209;-47
2021/12/07 05:51:28;;;;;;;55.10;28.33;;;-0.90;99.90;;;;;;5155533;28;20177;-47
2021/12/07 05:53:59;;;;;;;56.00;26.67;;;-0.90;99.90;;;;;;5141582;28;20187;-48
2021/12/07 05:56:29;;;;;;;60.67;30.17;;;-0.90;99.90;;;;;;5159296;28;20227;-46
2021/12/07 05:59:00;;;;;;;59.27;30.20;;;-0.90;99.90;;;;;;5157799;28;20657;-48
2021/12/07 06:01:31;;;;;;;61.67;29.10;;;-1.00;99.90;;;;;;5155233;28;20234;-46
2021/12/07 06:04:02;;;;;;;53.70;28.60;;;-1.00;99.90;;;;;;5153706;28;20268;-46
2021/12/07 06:06:33;;;;;;;57.53;28.30;;;-1.00;99.90;;;;;;5158181;28;20244;-47
2021/12/07 06:09:04;;;;;;;55.47;28.80;;;-1.10;99.90;;;;;;5158589;28;20542;-47
2021/12/07 06:11:34;;;;;;;54.53;28.10;;;-1.10;99.90;;;;;;5156647;28;20187;-46
2021/12/07 06:14:05;;;;;;;57.00;27.77;;;-1.10;99.90;;;;;;5157591;28;20173;-48
2021/12/07 06:16:36;;;;;;;48.27;28.33;;;-1.10;99.90;;;;;;5171421;28;20190;-46
2021/12/07 06:19:06;;;;;;;49.90;26.83;;;-1.10;99.90;;;;;;5157802;28;20285;-46
2021/12/07 06:21:37;;;;;;;59.60;29.17;;;-1.10;99.90;;;;;;5158947;28;20683;-47
2021/12/07 06:24:07;;;;;;;58.03;28.13;;;-1.20;99.90;;;;;;5159511;28;20197;-48
2021/12/07 06:26:38;;;;;;;53.57;27.33;;;-1.20;99.90;;;;;;5162372;28;20193;-47
2021/12/07 06:29:08;;;;;;;59.07;28.53;;;-1.20;99.90;;;;;;5163200;28;20541;-46
2021/12/07 06:31:39;;;;;;;57.90;28.10;;;-1.20;99.90;;;;;;5162455;28;20196;-48
2021/12/07 06:34:10;;;;;;;52.47;26.90;;;-1.20;99.90;;;;;;5163722;28;20181;-47
2021/12/07 06:36:40;;;;;;;59.83;27.47;;;-1.20;99.90;;;;;;5163757;28;20259;-46
2021/12/07 06:39:11;;;;;;;60.97;28.80;;;-1.20;99.90;;;;;;5165189;28;20459;-46
2021/12/07 06:41:42;;;;;;;58.23;28.10;;;-1.20;99.90;;;;;;5159925;28;20279;-49
2021/12/07 06:44:12;;;;;;;72.03;29.77;;;-1.30;99.90;;;;;;5162819;28;20681;-48
2021/12/07 06:46:43;;;;;;;66.00;29.83;;;-1.20;99.90;;;;;;5162759;28;20223;-47
2021/12/07 06:49:15;;;;;;;60.60;29.63;;;-1.20;99.90;;;;;;5164661;28;20240;-48
2021/12/07 06:51:47;;;;;;;58.87;30.13;;;-1.30;99.90;;;;;;5158321;28;20196;-47
2021/12/07 06:54:18;;;;;;;66.43;30.60;;;-1.30;99.90;;;;;;5161122;28;20486;-47
2021/12/07 06:56:49;;;;;;;70.47;31.30;;;-1.30;99.90;;;;;;5162584;28;21644;-47
2021/12/07 06:59:20;;;;;;;63.17;30.53;;;-1.20;99.90;;;;;;5158470;28;20484;-47
2021/12/07 07:01:50;;;;;;;66.83;32.30;;;-1.20;99.90;;;;;;5152991;28;20189;-47
2021/12/07 07:04:21;;;;;;;59.70;30.07;;;-1.20;99.90;;;;;;5151504;28;20949;-47
2021/12/07 07:06:52;;;;;;;72.13;33.57;;;-1.10;99.90;;;;;;5157529;28;20268;-47
2021/12/07 07:09:22;;;;;;;63.60;30.23;;;-1.10;99.90;;;;;;5157796;28;20270;-47
2021/12/07 07:11:53;;;;;;;73.93;32.23;;;-1.10;99.90;;;;;;5156595;28;21178;-48
2021/12/07 07:14:23;;;;;;;73.63;31.80;;;-1.10;99.90;;;;;;5157471;28;20197;-49
2021/12/07 07:16:54;;;;;;;59.87;31.57;;;-1.10;99.90;;;;;;5157720;28;20188;-48
2021/12/07 07:19:25;;;;;;;67.50;30.27;;;-1.00;99.90;;;;;;5156890;28;20282;-47
2021/12/07 07:21:58;;;;;;;61.50;30.00;;;-1.00;99.90;;;;;;5157995;28;20737;-48
2021/12/07 07:24:30;;;;;;;67.47;31.00;;;-1.00;99.90;;;;;;5174143;28;20205;-47
2021/12/07 07:27:01;;;;;;;59.77;29.00;;;-1.00;99.90;;;;;;5173791;28;20948;-48
2021/12/07 07:29:32;;;;;;;55.00;29.50;;;-0.90;99.90;;;;;;5159090;28;21314;-48
2021/12/07 07:32:03;;;;;;;58.20;29.73;;;-1.00;99.90;;;;;;5157325;28;20429;-49
2021/12/07 07:34:33;;;;;;;69.10;29.50;;;-0.90;99.90;;;;;;5158854;28;20271;-45
2021/12/07 07:37:05;;;;;;;57.73;29.60;;;-1.00;99.90;;;;;;5151595;28;20494;-50
2021/12/07 07:39:35;;;;;;;53.20;29.07;;;-0.90;99.90;;;;;;5155161;28;20235;-47
2021/12/07 07:42:06;;;;;;;57.80;29.27;;;-0.90;99.90;;;;;;5154212;28;20940;-49
2021/12/07 07:44:37;;;;;;;61.67;29.40;;;-0.90;99.90;;;;;;5154450;28;20282;-45
2021/12/07 07:47:07;;;;;;;56.50;28.50;;;-0.90;99.90;;;;;;5157883;28;20181;-48
2021/12/07 07:49:38;;;;;;;57.20;27.93;;;-0.90;99.90;;;;;;5156550;28;20459;-50
2021/12/07 07:52:09;;;;;;;57.37;27.37;;;-0.90;99.90;;;;;;5153440;28;20211;-46
2021/12/07 07:54:39;;;;;;;46.83;25.43;;;-0.90;99.90;;;;;;5154960;28;20201;-48
2021/12/07 07:57:10;;;;;;;51.47;28.07;;;-0.80;99.90;;;;;;5151495;28;20212;-49
2021/12/07 07:59:41;;;;;;;56.63;26.73;;;-0.80;99.90;;;;;;5155468;28;20632;-47
2021/12/07 08:02:12;;;;;;;57.20;27.43;;;-0.80;99.90;;;;;;5150654;28;20618;-49
2021/12/07 08:04:42;;;;;;;54.03;26.97;;;-0.80;99.90;;;;;;5149353;28;20579;-48
2021/12/07 08:07:14;;;;;;;51.57;25.60;;;-0.80;99.90;;;;;;5158047;28;20637;-48
2021/12/07 08:09:44;;;;;;;50.50;27.17;;;-0.80;99.90;;;;;;5160663;28;20216;-47
2021/12/07 08:12:15;;;;;;;46.70;26.33;;;-0.80;99.90;;;;;;5156383;28;20443;-47
2021/12/07 08:14:46;;;;;;;59.50;29.97;;;-0.70;99.90;;;;;;5154023;28;20192;-46
2021/12/07 08:17:16;;;;;;;54.13;26.77;;;-0.70;99.90;;;;;;5145855;28;27997;-47
2021/12/07 08:19:47;;;;;;;58.40;25.63;;;-0.70;99.90;;;;;;5152525;28;20212;-48
2021/12/07 08:22:17;;;;;;;52.33;26.27;;;-0.40;99.90;;;;;;5159579;28;20272;-47
2021/12/07 08:24:49;;;;;;;49.60;25.90;;;-0.30;99.90;;;;;;5154843;28;20220;-48
2021/12/07 08:27:20;;;;;;;47.93;25.13;;;-0.20;99.90;;;;;;5153264;28;20240;-49
2021/12/07 08:29:50;;;;;;;51.33;25.40;;;-0.20;99.90;;;;;;5154040;28;20460;-49
2021/12/07 08:32:21;;;;;;;48.33;23.20;;;-0.20;99.90;;;;;;5157023;28;20232;-48
2021/12/07 08:34:52;;;;;;;38.80;23.00;;;-0.10;99.90;;;;;;5160413;28;20220;-47
2021/12/07 08:37:22;;;;;;;45.13;23.77;;;-0.10;99.90;;;;;;5155740;28;20280;-48
2021/12/07 08:39:53;;;;;;;49.03;24.00;;;-0.20;99.90;;;;;;5150767;23;20493;-51
2021/12/07 08:42:24;;;;;;;43.73;22.10;;;-0.20;99.90;;;;;;5132543;28;20213;-52
2021/12/07 08:44:54;;;;;;;41.93;22.60;;;-0.20;99.90;;;;;;5151693;28;20226;-51
2021/12/07 08:47:25;;;;;;;44.70;24.40;;;-0.20;99.90;;;;;;5133024;28;20208;-51
2021/12/07 08:49:57;;;;;;;46.20;24.33;;;-0.10;99.90;;;;;;5140384;28;20268;-53
2021/12/07 08:52:28;;;;;;;49.57;22.97;;;-0.20;99.90;;;;;;5132933;28;20511;-53
2021/12/07 09:00:37;;;;;;;42.27;21.63;;;0.00;99.90;;;;;;5136891;28;20452;-53
2021/12/07 09:03:07;;;;;;;46.03;23.37;;;-0.10;99.90;;;;;;5135190;28;20441;-52
2021/12/07 09:05:38;;;;;;;37.57;23.30;;;-0.20;99.90;;;;;;5137526;28;20683;-52
2021/12/07 09:08:09;;;;;;;42.53;23.70;;;-0.20;99.90;;;;;;5135651;28;20196;-51
2021/12/07 09:10:40;;;;;;;57.00;24.20;;;-0.30;99.90;;;;;;5134635;28;20228;-51
2021/12/07 09:13:11;;;;;;;38.67;21.57;;;-0.30;99.90;;;;;;5136928;28;20248;-53
2021/12/07 09:15:41;;;;;;;42.33;23.07;;;-0.30;99.90;;;;;;5144524;28;20217;-52
2021/12/07 09:18:12;;;;;;;47.53;24.47;;;-0.30;99.90;;;;;;5145624;28;20975;-52
2021/12/07 09:20:43;;;;;;;50.87;24.70;;;-0.30;99.90;;;;;;5140053;28;20268;-52
2021/12/07 09:23:14;;;;;;;46.20;24.17;;;-0.30;99.90;;;;;;5142419;28;20463;-52
2021/12/07 09:25:45;;;;;;;45.93;22.43;;;-0.30;99.90;;;;;;5141374;28;20193;-51
2021/12/07 09:28:16;;;;;;;43.13;24.07;;;-0.30;99.90;;;;;;5139371;28;20507;-52
2021/12/07 09:30:52;;;;;;;42.00;22.47;;;-0.30;99.90;;;;;;5141713;28;20590;-51
2021/12/07 09:33:26;;;;;;;47.27;23.40;;;-0.30;99.90;;;;;;5141645;28;20427;-52
2021/12/07 09:35:57;;;;;;;45.63;25.33;;;-0.30;99.90;;;;;;5140778;28;20523;-52
2021/12/07 09:38:27;;;;;;;48.43;24.40;;;-0.30;99.90;;;;;;5139188;28;20451;-53
2021/12/07 09:40:59;;;;;;;51.03;24.90;;;-0.30;99.90;;;;;;5142445;28;20221;-51
2021/12/07 09:43:30;;;;;;;53.80;27.07;;;-0.30;99.90;;;;;;5137355;28;20273;-54
2021/12/07 09:46:01;;;;;;;42.00;23.27;;;-0.20;99.90;;;;;;5137498;28;20469;-51
2021/12/07 09:48:32;;;;;;;48.10;26.23;;;-0.30;99.90;;;;;;5137374;28;20443;-53
2021/12/07 09:51:05;;;;;;;53.40;26.63;;;-0.30;99.90;;;;;;5127263;28;20643;-53
2021/12/07 09:53:36;;;;;;;43.80;24.17;;;-0.20;99.90;;;;;;5138263;28;20467;-52
2021/12/07 09:56:07;;;;;;;48.70;26.40;;;-0.20;99.90;;;;;;5134897;28;20440;-54
2021/12/07 09:58:39;;;;;;;42.93;23.47;;;-0.30;99.90;;;;;;5141679;28;20505;-51
2021/12/07 10:01:11;;;;;;;52.03;25.53;;;-0.20;99.90;;;;;;5157155;28;21356;-52
2021/12/07 10:03:41;;;;;;;51.43;26.13;;;-0.20;99.90;;;;;;5138384;28;21871;-51
2021/12/07 10:06:13;;;;;;;45.27;24.47;;;-0.10;99.90;;;;;;5138987;28;20450;-53
2021/12/07 10:08:43;;;;;;;53.80;26.80;;;-0.10;99.90;;;;;;5134497;28;20216;-52
2021/12/07 10:11:16;;;;;;;46.27;24.40;;;-0.10;99.90;;;;;;5132378;28;20956;-52
2021/12/07 10:13:50;;;;;;;52.27;25.80;;;-0.10;99.90;;;;;;5134908;28;20184;-51
2021/12/07 10:16:23;;;;;;;48.97;26.53;;;-0.10;99.90;;;;;;5141147;28;20452;-51
2021/12/07 10:18:54;;;;;;;50.40;25.20;;;0.00;99.90;;;;;;5133300;28;20475;-51
2021/12/07 10:21:30;;;;;;;56.07;25.17;;;0.10;99.90;;;;;;5134404;28;20469;-51
2021/12/07 10:24:07;;;;;;;55.43;27.77;;;0.10;99.90;;;;;;5135695;28;20178;-54
2021/12/07 10:26:43;;;;;;;50.10;24.87;;;0.00;99.90;;;;;;5135989;28;20529;-52
2021/12/07 10:29:17;;;;;;;55.20;26.07;;;0.00;99.90;;;;;;5136659;28;20507;-52
2021/12/07 10:31:53;;;;;;;52.20;26.50;;;0.10;99.90;;;;;;5136117;28;20531;-55
2021/12/07 10:34:29;;;;;;;56.20;26.77;;;0.10;99.90;;;;;;5138703;28;20460;-50
2021/12/07 10:37:05;;;;;;;50.20;25.03;;;0.10;99.90;;;;;;5153281;28;20441;-53
2021/12/07 10:39:41;;;;;;;49.53;26.83;;;0.10;99.90;;;;;;5134798;28;20991;-51
2021/12/07 10:42:16;;;;;;;54.83;27.90;;;0.20;99.90;;;;;;5136836;28;20444;-53
2021/12/07 10:44:46;;;;;;;46.27;26.83;;;0.20;99.90;;;;;;5137053;28;20666;-53
2021/12/07 10:47:22;;;;;;;42.57;24.20;;;0.20;99.90;;;;;;5133548;28;20460;-53
2021/12/07 10:49:57;;;;;;;48.80;27.50;;;0.20;99.90;;;;;;5137243;28;20737;-56
2021/12/07 10:52:42;;;;;;;47.97;25.97;;;0.20;99.90;;;;;;5136614;28;20492;-54
2021/12/07 10:55:17;;;;;;;48.73;27.23;;;0.20;99.90;;;;;;5137034;28;20437;-51
2021/12/07 10:57:57;;;;;;;53.23;27.20;;;0.30;99.90;;;;;;5141743;28;20437;-53
2021/12/07 11:00:33;;;;;;;45.50;24.53;;;0.30;99.90;;;;;;5138682;28;20487;-52
2021/12/07 11:03:05;;;;;;;53.43;24.77;;;0.40;99.90;;;;;;5138658;28;20800;-53
2021/12/07 11:05:53;;;;;;;51.17;26.50;;;0.40;99.90;;;;;;5139991;28;20824;-55
2021/12/07 11:08:29;;;;;;;53.30;25.07;;;0.40;99.90;;;;;;5139449;28;20920;-54
2021/12/07 11:11:05;;;;;;;57.23;26.40;;;0.50;99.90;;;;;;5136772;28;20445;-52
2021/12/07 11:13:38;;;;;;;60.83;27.70;;;0.50;99.90;;;;;;5141541;28;20519;-53
2021/12/07 11:16:15;;;;;;;58.27;26.77;;;0.50;99.90;;;;;;5134029;28;21659;-54
2021/12/07 11:18:48;;;;;;;53.63;23.40;;;0.50;99.90;;;;;;5135428;28;20465;-53
2021/12/07 11:21:20;;;;;;;50.03;24.93;;;0.50;99.90;;;;;;5136622;28;20979;-54
2021/12/07 11:23:55;;;;;;;42.40;24.33;;;0.50;99.90;;;;;;5140631;28;20441;-52
2021/12/07 11:31:49;;;;;;;48.17;26.80;;;0.30;99.90;;;;;;5144732;28;20440;-54
2021/12/07 11:34:27;;;;;;;48.23;25.37;;;0.20;99.90;;;;;;5147313;28;20425;-53
2021/12/07 11:37:02;;;;;;;49.87;27.30;;;0.30;99.90;;;;;;5159111;28;20189;-52
2021/12/07 11:39:39;;;;;;;51.43;26.80;;;0.30;99.90;;;;;;5143366;28;20523;-53
2021/12/07 11:42:17;;;;;;;51.37;26.47;;;0.30;99.90;;;;;;5147726;28;20480;-52
2021/12/07 11:44:48;;;;;;;56.47;27.17;;;0.30;99.90;;;;;;5144199;28;20461;-52
2021/12/07 11:47:33;;;;;;;54.90;26.17;;;0.40;99.90;;;;;;5145195;28;20522;-52
2021/12/07 11:50:14;;;;;;;52.17;26.90;;;0.40;99.90;;;;;;5146161;28;20264;-53
2021/12/07 11:52:47;;;;;;;52.80;28.77;;;0.40;99.90;;;;;;5144738;28;20432;-52
2021/12/07 11:55:21;;;;;;;53.40;29.07;;;0.30;99.90;;;;;;5143838;28;20457;-51
2021/12/07 11:57:56;;;;;;;59.40;27.60;;;0.30;99.90;;;;;;5135618;28;20457;-52
2021/12/07 12:00:34;;;;;;;49.30;28.70;;;0.20;99.90;;;;;;5139467;28;20492;-53
2021/12/07 12:03:10;;;;;;;58.83;28.33;;;0.30;99.90;;;;;;5139909;28;20527;-52
2021/12/07 12:05:43;;;;;;;55.33;27.77;;;0.30;99.90;;;;;;5140693;28;20981;-53
2021/12/07 12:08:20;;;;;;;62.40;28.67;;;0.30;99.90;;;;;;5136108;28;20433;-52
2021/12/07 12:11:03;;;;;;;59.07;30.13;;;0.40;99.90;;;;;;5138463;28;20487;-55
2021/12/07 12:13:58;;;;;;;54.43;27.07;;;0.40;99.90;;;;;;5136647;28;20540;-54
2021/12/07 12:16:56;;;;;;;52.50;27.40;;;0.40;99.90;;;;;;5131671;28;20449;-51
2021/12/07 12:19:59;;;;;;;56.60;27.00;;;0.40;99.90;;;;;;5153310;28;20977;-51
2021/12/07 12:23:03;;;;;;;61.43;29.73;;;0.30;99.90;;;;;;5135524;28;20445;-52
2021/12/07 12:25:35;;;;;;;58.63;27.70;;;0.30;99.90;;;;;;5153145;28;20469;-52
2021/12/07 12:28:06;;;;;;;61.50;29.27;;;0.30;99.90;;;;;;5138860;28;20442;-52
2021/12/07 12:30:40;;;;;;;52.93;27.20;;;0.30;99.90;;;;;;5137464;28;20464;-52
2021/12/07 12:33:13;;;;;;;62.57;31.10;;;0.40;99.90;;;;;;5138851;28;20181;-52
2021/12/07 12:35:51;;;;;;;57.37;27.57;;;0.30;99.90;;;;;;5136222;28;20615;-53
2021/12/07 12:38:30;;;;;;;51.67;27.57;;;0.40;99.90;;;;;;5142234;28;20441;-52
2021/12/07 12:41:06;;;;;;;67.10;30.27;;;0.30;99.90;;;;;;5137190;28;20445;-53
2021/12/07 12:43:47;;;;;;;54.17;29.50;;;0.30;99.90;;;;;;5139194;28;20433;-52
2021/12/07 12:46:27;;;;;;;60.23;29.40;;;0.40;99.90;;;;;;5139413;28;20488;-53
2021/12/07 12:49:05;;;;;;;58.57;30.50;;;0.40;99.90;;;;;;5136853;28;20539;-52
2021/12/07 12:51:48;;;;;;;58.80;29.40;;;0.40;99.90;;;;;;5140022;28;20441;-55
2021/12/07 12:54:19;;;;;;;59.73;28.90;;;0.50;99.90;;;;;;5138035;28;20598;-54
2021/12/07 12:56:50;;;;;;;63.40;27.80;;;0.50;99.90;;;;;;5137409;28;20461;-54
2021/12/07 12:59:21;;;;;;;55.47;28.07;;;0.50;99.90;;;;;;5137444;28;20484;-54
2021/12/07 13:01:56;;;;;;;52.83;27.53;;;0.50;99.90;;;;;;5138316;28;20260;-55
2021/12/07 13:04:28;;;;;;;56.17;28.50;;;0.50;99.90;;;;;;5133942;28;20470;-54
2021/12/07 13:09:43;;;;;;;54.67;28.00;;;0.50;99.90;;;;;;5136541;28;20462;-55
2021/12/07 13:12:17;;;;;;;67.30;29.40;;;0.60;99.90;;;;;;5136303;28;20437;-55
2021/12/07 13:14:57;;;;;;;58.27;29.67;;;0.60;99.90;;;;;;5139097;28;20495;-54
2021/12/07 13:17:35;;;;;;;59.53;30.17;;;0.60;99.90;;;;;;5137407;28;20565;-53
2021/12/07 13:20:20;;;;;;;64.80;28.47;;;0.60;99.90;;;;;;5135110;28;20508;-55
2021/12/07 13:23:00;;;;;;;60.40;30.60;;;0.60;99.90;;;;;;5134655;28;20440;-53
2021/12/07 13:25:35;;;;;;;68.60;30.27;;;0.60;99.90;;;;;;5136777;28;20462;-52
2021/12/07 13:28:11;;;;;;;57.40;27.17;;;0.70;99.90;;;;;;5141793;28;20762;-55
2021/12/07 13:30:45;;;;;;;63.27;28.47;;;0.70;99.90;;;;;;5154771;28;20436;-52
2021/12/07 13:33:31;;;;;;;62.00;29.33;;;0.60;99.90;;;;;;5144131;28;20441;-52
2021/12/07 13:36:31;;;;;;;57.87;27.10;;;0.60;99.90;;;;;;5156561;28;20440;-54
2021/12/07 13:39:18;;;;;;;51.40;25.80;;;0.50;99.90;;;;;;5156947;28;20960;-53
2021/12/07 13:42:13;;;;;;;57.93;27.10;;;0.50;99.90;;;;;;5141675;28;21037;-53
2021/12/07 13:44:47;;;;;;;56.70;29.73;;;0.40;99.90;;;;;;5140770;28;20489;-55
2021/12/07 13:47:22;;;;;;;55.47;28.33;;;0.40;99.90;;;;;;5142134;28;20450;-52
2021/12/07 13:50:04;;;;;;;61.07;29.43;;;0.30;99.90;;;;;;5142223;28;20440;-53
2021/12/07 13:52:38;;;;;;;52.23;27.93;;;0.30;99.90;;;;;;5139844;28;20439;-52
2021/12/07 13:55:16;;;;;;;55.50;28.90;;;0.30;99.90;;;;;;5142291;28;20436;-53
2021/12/07 13:57:50;;;;;;;67.27;29.40;;;0.30;99.90;;;;;;5160321;28;20504;-54
2021/12/07 14:00:36;;;;;;;65.50;28.50;;;0.30;99.90;;;;;;5139252;28;20463;-51
2021/12/07 14:03:09;;;;;;;65.10;29.43;;;0.30;99.90;;;;;;5142121;28;20433;-52
2021/12/07 14:05:43;;;;;;;59.73;28.70;;;0.40;99.90;;;;;;5140448;28;21041;-52
2021/12/07 14:08:15;;;;;;;61.53;29.47;;;0.40;99.90;;;;;;5138572;28;20524;-51
2021/12/07 14:10:51;;;;;;;65.40;29.67;;;0.50;99.90;;;;;;5145237;28;20520;-53
2021/12/07 14:13:22;;;;;;;59.57;29.73;;;0.50;99.90;;;;;;5139243;28;20424;-52
2021/12/07 14:15:55;;;;;;;58.23;27.07;;;0.50;99.90;;;;;;5141849;28;20448;-52
2021/12/07 14:18:27;;;;;;;57.33;27.63;;;0.50;99.90;;;;;;5142958;28;21037;-52
2021/12/07 14:20:59;;;;;;;49.60;24.77;;;0.50;99.90;;;;;;5143135;28;20436;-53
2021/12/07 14:23:38;;;;;;;52.77;26.03;;;0.50;99.90;;;;;;5137130;28;20441;-53
2021/12/07 14:26:17;;;;;;;51.80;26.30;;;0.40;99.90;;;;;;5141460;28;20991;-53
2021/12/07 14:29:03;;;;;;;63.37;28.00;;;0.40;99.90;;;;;;5142333;28;20980;-53
2021/12/07 14:31:40;;;;;;;55.63;26.17;;;0.30;99.90;;;;;;5143063;28;20431;-52